createdAt,value
2019-02-06T00:02:31.996Z,25.53
2019-02-06T00:05:13.665Z,26.03
2019-02-06T00:07:34.143Z,24.97
2019-02-06T00:10:04.465Z,23.43
2019-02-06T00:12:34.213Z,28.80
2019-02-06T00:15:04.118Z,23.93
2019-02-06T00:17:33.820Z,26.37
2019-02-06T00:20:03.446Z,24.27
2019-02-06T00:22:33.196Z,25.53
2019-02-06T00:25:02.969Z,23.90
2019-02-06T00:27:32.717Z,24.87
2019-02-06T00:30:02.391Z,27.10
2019-02-06T00:32:34.227Z,23.90
2019-02-06T00:35:05.095Z,23.03
2019-02-06T00:37:37.109Z,23.53
2019-02-06T00:40:07.208Z,20.20
2019-02-06T00:42:36.978Z,21.23
2019-02-06T00:45:06.999Z,20.20
2019-02-06T00:47:36.709Z,19.40
2019-02-06T00:50:08.236Z,18.47
2019-02-06T00:52:38.502Z,19.30
2019-02-06T00:55:08.327Z,19.43
2019-02-06T00:57:38.055Z,16.83
2019-02-06T01:00:12.791Z,20.57
2019-02-06T01:02:42.461Z,18.73
2019-02-06T01:05:13.894Z,18.47
2019-02-06T01:07:43.578Z,14.90
2019-02-06T01:10:14.002Z,21.07
2019-02-06T01:12:43.735Z,17.93
2019-02-06T01:15:14.115Z,16.23
2019-02-06T01:17:43.902Z,17.20
2019-02-06T01:20:15.381Z,16.30
2019-02-06T01:22:45.067Z,14.27
2019-02-06T01:25:16.031Z,14.47
2019-02-06T01:27:45.992Z,15.57
2019-02-06T01:30:21.467Z,13.93
2019-02-06T01:32:51.346Z,17.33
2019-02-06T01:35:21.033Z,15.73
2019-02-06T01:37:50.852Z,14.57
2019-02-06T01:40:20.932Z,17.13
2019-02-06T01:42:50.659Z,16.23
2019-02-06T01:45:21.175Z,17.00
2019-02-06T01:47:50.871Z,17.33
2019-02-06T01:50:20.715Z,14.23
2019-02-06T01:52:50.509Z,15.37
2019-02-06T01:55:20.316Z,14.87
2019-02-06T01:57:50.133Z,17.40
2019-02-06T02:00:22.846Z,17.53
2019-02-06T02:02:52.532Z,16.37
2019-02-06T02:05:22.493Z,18.37
2019-02-06T02:07:52.641Z,18.70
2019-02-06T02:10:22.744Z,17.83
2019-02-06T02:12:52.467Z,19.77
2019-02-06T02:15:22.154Z,20.07
2019-02-06T02:17:52.072Z,22.03
2019-02-06T02:20:23.653Z,19.63
2019-02-06T02:22:53.420Z,18.67
2019-02-06T02:25:24.396Z,19.40
2019-02-06T02:27:53.990Z,18.53
2019-02-06T02:30:35.162Z,17.60
2019-02-06T02:33:04.763Z,19.83
2019-02-06T02:35:34.456Z,17.10
2019-02-06T02:38:04.240Z,18.40
2019-02-06T02:40:33.910Z,17.57
2019-02-06T02:43:03.612Z,16.60
2019-02-06T02:45:33.502Z,17.40
2019-02-06T02:48:03.212Z,19.00
2019-02-06T02:50:33.018Z,20.60
2019-02-06T02:53:04.951Z,16.87
2019-02-06T02:55:34.682Z,18.70
2019-02-06T02:58:04.666Z,19.60
2019-02-06T03:00:55.360Z,20.57
2019-02-06T03:03:42.848Z,21.10
2019-02-06T03:06:27.165Z,20.97
2019-02-06T03:08:46.797Z,26.37
2019-02-06T03:11:17.865Z,23.93
2019-02-06T03:13:47.715Z,28.40
2019-02-06T03:16:17.525Z,26.97
2019-02-06T03:18:47.583Z,26.87
2019-02-06T03:21:17.434Z,20.10
2019-02-06T03:23:47.451Z,21.33
2019-02-06T03:26:17.154Z,22.70
2019-02-06T03:28:46.852Z,23.07
2019-02-06T03:31:16.637Z,23.47
2019-02-06T03:33:46.764Z,21.60
2019-02-06T03:36:17.351Z,22.13
2019-02-06T03:38:47.049Z,22.20
2019-02-06T03:41:16.880Z,25.40
2019-02-06T03:43:46.683Z,21.70
2019-02-06T03:46:16.446Z,25.10
2019-02-06T03:48:46.490Z,27.83
2019-02-06T03:51:16.240Z,31.70
2019-02-06T03:53:46.014Z,37.80
2019-02-06T03:56:15.808Z,40.73
2019-02-06T03:58:45.502Z,37.80
2019-02-06T04:01:15.336Z,30.53
2019-02-06T04:03:46.584Z,31.60
2019-02-06T04:06:16.377Z,32.70
2019-02-06T04:08:46.126Z,27.83
2019-02-06T04:11:15.859Z,25.10
2019-02-06T04:13:45.617Z,24.23
2019-02-06T04:16:15.356Z,26.87
2019-02-06T04:18:45.319Z,24.20
2019-02-06T04:21:15.127Z,25.33
2019-02-06T04:23:45.246Z,23.50
2019-02-06T04:26:15.014Z,27.13
2019-02-06T04:28:51.960Z,26.17
2019-02-06T04:31:22.131Z,28.80
2019-02-06T04:33:51.799Z,27.00
2019-02-06T04:36:21.567Z,27.97
2019-02-06T04:38:51.317Z,26.17
2019-02-06T04:41:21.145Z,25.17
2019-02-06T04:43:50.836Z,24.30
2019-02-06T04:46:20.544Z,30.40
2019-02-06T04:48:50.400Z,27.43
2019-02-06T04:51:20.352Z,26.80
2019-02-06T04:53:50.019Z,26.60
2019-02-06T04:56:19.698Z,27.50
2019-02-06T04:58:49.557Z,27.03
2019-02-06T05:01:19.373Z,27.27
2019-02-06T05:03:49.102Z,26.17
2019-02-06T05:06:18.868Z,27.50
2019-02-06T05:08:49.108Z,27.53
2019-02-06T05:11:19.218Z,29.60
2019-02-06T05:13:57.247Z,28.53
2019-02-06T05:16:26.869Z,27.80
2019-02-06T05:18:58.543Z,27.40
2019-02-06T05:21:28.300Z,28.33
2019-02-06T05:24:06.132Z,26.97
2019-02-06T05:26:39.446Z,24.20
2019-02-06T05:29:17.248Z,25.70
2019-02-06T05:31:46.834Z,25.93
2019-02-06T05:34:17.727Z,28.60
2019-02-06T05:36:50.754Z,27.10
2019-02-06T05:39:19.996Z,29.63
2019-02-06T05:41:49.757Z,30.90
2019-02-06T05:44:19.512Z,29.17
2019-02-06T05:46:52.225Z,30.63
2019-02-06T05:49:23.728Z,51.73
2019-02-06T05:52:01.197Z,31.37
2019-02-06T05:54:31.056Z,33.93
2019-02-06T05:57:00.744Z,29.63
2019-02-06T05:59:30.496Z,48.63
2019-02-06T06:02:00.251Z,35.83
2019-02-06T06:04:30.475Z,30.63
2019-02-06T06:07:00.539Z,33.90
2019-02-06T06:09:30.255Z,28.97
2019-02-06T06:12:00.208Z,53.50
2019-02-06T06:14:33.893Z,26.27
2019-02-06T06:17:03.708Z,43.03
2019-02-06T06:19:35.501Z,27.20
2019-02-06T06:22:05.602Z,29.23
2019-02-06T06:24:35.293Z,26.83
2019-02-06T06:27:14.976Z,24.00
2019-02-06T06:29:48.454Z,34.93
2019-02-06T06:32:17.950Z,14.00
2019-02-06T06:34:49.068Z,21.13
2019-02-06T06:38:01.924Z,21.30
2019-02-06T06:40:31.480Z,23.23
2019-02-06T06:43:18.527Z,26.67
2019-02-06T06:46:25.569Z,24.30
2019-02-06T06:52:56.383Z,24.37
2019-02-06T07:00:56.730Z,24.97
2019-02-06T07:03:26.897Z,19.00
2019-02-06T07:09:56.824Z,19.80
2019-02-06T07:12:29.222Z,19.53
2019-02-06T07:15:24.470Z,36.23
2019-02-06T07:17:54.166Z,19.83
2019-02-06T07:20:24.098Z,20.27
2019-02-06T07:23:19.331Z,19.97
2019-02-06T07:25:49.035Z,21.87
2019-02-06T07:28:18.858Z,21.40
2019-02-06T07:30:48.785Z,18.73
2019-02-06T07:33:19.326Z,22.43
2019-02-06T07:35:58.744Z,22.47
2019-02-06T07:38:29.143Z,25.43
2019-02-06T07:41:00.268Z,21.73
2019-02-06T07:43:30.201Z,22.03
2019-02-06T07:46:00.094Z,20.77
2019-02-06T07:48:29.881Z,20.23
2019-02-06T07:50:59.922Z,21.23
2019-02-06T07:53:38.055Z,27.20
2019-02-06T07:56:07.908Z,34.27
2019-02-06T07:59:07.459Z,22.17
2019-02-06T08:01:44.232Z,28.00
2019-02-06T08:04:41.398Z,20.27
2019-02-06T08:07:47.807Z,20.33
2019-02-06T08:10:07.991Z,20.50
2019-02-06T08:12:40.960Z,23.00
2019-02-06T08:15:17.339Z,23.73
2019-02-06T08:17:56.153Z,20.03
2019-02-06T08:20:29.273Z,23.53
2019-02-06T08:22:59.331Z,21.23
2019-02-06T08:25:32.439Z,22.23
2019-02-06T08:28:05.407Z,18.53
2019-02-06T08:30:37.941Z,20.73
2019-02-06T08:33:14.339Z,57.07
2019-02-06T08:35:44.747Z,24.07
2019-02-06T08:38:27.908Z,19.10
2019-02-06T08:40:59.182Z,18.27
2019-02-06T08:43:55.002Z,17.13
2019-02-06T08:46:51.963Z,16.90
2019-02-06T08:49:16.223Z,17.27
2019-02-06T08:51:45.941Z,15.60
2019-02-06T08:54:15.670Z,15.63
2019-02-06T08:56:58.707Z,14.00
2019-02-06T08:59:29.149Z,12.00
2019-02-06T09:01:59.582Z,14.30
2019-02-06T09:04:30.941Z,17.97
2019-02-06T09:07:34.687Z,16.57
2019-02-06T09:10:54.677Z,15.43
2019-02-06T09:13:42.280Z,14.17
2019-02-06T09:16:13.322Z,17.77
2019-02-06T09:18:58.778Z,13.63
2019-02-06T09:21:27.763Z,14.27
2019-02-06T09:24:37.433Z,12.90
2019-02-06T09:27:08.225Z,55.53
2019-02-06T09:48:31.400Z,21.50
2019-02-06T09:55:34.626Z,13.50
2019-02-06T09:57:56.225Z,13.70
2019-02-06T10:04:20.589Z,14.00
2019-02-06T10:06:54.926Z,14.90
2019-02-06T10:09:31.712Z,15.03
2019-02-06T10:12:28.322Z,13.70
2019-02-06T10:15:38.682Z,17.00
2019-02-06T10:18:09.738Z,21.27
2019-02-06T10:27:52.279Z,22.57
2019-02-06T10:38:34.878Z,23.90
2019-02-06T10:48:18.840Z,17.70
2019-02-06T10:51:00.221Z,17.07
2019-02-06T10:54:14.710Z,17.30
2019-02-06T10:56:47.578Z,16.87
2019-02-06T10:59:21.020Z,15.83
2019-02-06T11:01:57.663Z,21.03
2019-02-06T11:17:32.057Z,16.67
2019-02-06T11:19:13.909Z,17.17
2019-02-06T11:20:01.871Z,14.47
2019-02-06T11:23:35.818Z,13.00
2019-02-06T11:40:34.436Z,15.00
2019-02-06T11:43:24.853Z,19.97
2019-02-06T11:46:01.443Z,19.90
2019-02-06T11:48:35.767Z,20.50
2019-02-06T11:51:05.968Z,21.43
2019-02-06T11:53:38.865Z,21.70
2019-02-06T11:56:08.943Z,21.17
2019-02-06T11:58:38.822Z,17.70
2019-02-06T12:01:21.950Z,20.37
2019-02-06T12:04:05.300Z,17.80
2019-02-06T12:06:48.784Z,17.33
2019-02-06T12:09:36.587Z,21.77
2019-02-06T12:16:09.254Z,20.83
2019-02-06T12:21:24.210Z,18.57
2019-02-06T12:27:06.535Z,18.90
2019-02-06T12:29:38.263Z,18.43
2019-02-06T12:43:49.327Z,21.47
2019-02-06T12:46:21.270Z,20.90
2019-02-06T12:48:51.309Z,19.43
2019-02-06T12:51:21.528Z,18.90
2019-02-06T12:54:02.162Z,21.97
2019-02-06T12:57:06.120Z,24.93
2019-02-06T13:00:36.441Z,24.97
2019-02-06T13:03:57.905Z,25.33
2019-02-06T13:05:42.296Z,24.63
2019-02-06T13:08:20.586Z,23.13
2019-02-06T13:10:50.366Z,18.23
2019-02-06T13:13:21.799Z,19.10
2019-02-06T13:15:56.365Z,25.77
2019-02-06T13:18:26.050Z,20.43
2019-02-06T13:20:55.836Z,24.00
2019-02-06T13:23:25.739Z,19.00
2019-02-06T13:25:55.684Z,23.60
2019-02-06T13:28:36.343Z,20.47
2019-02-06T13:31:06.194Z,20.43
2019-02-06T13:33:36.299Z,20.80
2019-02-06T13:36:09.816Z,21.33
2019-02-06T13:38:39.630Z,20.50
2019-02-06T13:41:09.450Z,23.73
2019-02-06T13:43:39.131Z,21.20
2019-02-06T13:46:09.117Z,31.40
2019-02-06T13:48:38.859Z,29.27
2019-02-06T13:51:16.338Z,24.77
2019-02-06T13:53:50.115Z,24.73
2019-02-06T13:56:25.254Z,24.27
2019-02-06T13:58:57.193Z,21.10
2019-02-06T14:01:26.616Z,22.43
2019-02-06T14:03:59.004Z,24.77
2019-02-06T14:06:32.371Z,26.67
2019-02-06T14:09:09.123Z,27.03
2019-02-06T14:11:36.392Z,23.50
2019-02-06T14:14:11.727Z,24.27
2019-02-06T14:17:04.948Z,24.27
2019-02-06T14:28:18.379Z,22.07
2019-02-06T14:54:22.573Z,27.57
2019-02-06T15:01:02.280Z,29.47
2019-02-06T15:04:21.268Z,30.83
2019-02-06T15:07:27.567Z,26.43
2019-02-06T15:10:34.533Z,34.57
2019-02-06T15:13:43.628Z,27.03
2019-02-06T15:16:24.034Z,31.17
2019-02-06T15:19:49.647Z,30.33
2019-02-06T15:26:08.133Z,28.77
2019-02-06T15:29:19.111Z,29.47
2019-02-06T15:32:44.817Z,28.50
2019-02-06T15:35:47.200Z,28.80
2019-02-06T15:38:49.468Z,28.93
2019-02-06T15:41:51.482Z,109.63
2019-02-06T15:44:54.527Z,28.10
2019-02-06T15:47:51.494Z,32.97
2019-02-06T15:50:52.988Z,33.93
2019-02-06T15:53:48.942Z,34.20
2019-02-06T15:56:56.547Z,33.27
2019-02-06T16:00:05.083Z,35.90
2019-02-06T16:03:14.827Z,38.20
2019-02-06T16:06:38.095Z,34.03
2019-02-06T16:09:54.683Z,36.03
2019-02-06T16:13:01.236Z,34.50
2019-02-06T16:20:12.463Z,37.17
2019-02-06T16:24:04.928Z,40.40
2019-02-06T16:27:24.373Z,43.70
2019-02-06T16:30:32.546Z,38.53
2019-02-06T16:33:43.474Z,42.50
2019-02-06T16:36:57.380Z,41.63
2019-02-06T16:40:04.176Z,45.37
2019-02-06T16:43:20.264Z,54.07
2019-02-06T16:47:06.425Z,45.67
2019-02-06T16:50:08.541Z,42.27
2019-02-06T17:00:56.478Z,39.40
2019-02-06T17:04:00.312Z,37.40
2019-02-06T17:07:14.509Z,61.93
2019-02-06T17:10:47.750Z,44.33
2019-02-06T17:14:03.424Z,35.30
2019-02-06T17:17:23.261Z,34.90
2019-02-06T17:20:21.859Z,42.93
2019-02-06T17:24:16.636Z,38.27
2019-02-06T17:30:49.402Z,38.57
2019-02-06T17:34:06.317Z,44.10
2019-02-06T17:37:21.173Z,42.33
2019-02-06T17:40:11.133Z,44.80
2019-02-06T17:43:27.387Z,40.90
2019-02-06T17:49:42.531Z,42.73
2019-02-06T17:53:03.916Z,198.10
2019-02-06T17:55:54.181Z,44.87
2019-02-06T17:58:32.108Z,42.13
2019-02-06T18:01:09.014Z,41.37
2019-02-06T18:03:55.135Z,42.67
2019-02-06T18:06:24.890Z,40.97
2019-02-06T18:08:57.066Z,41.50
2019-02-06T18:11:26.693Z,145.60
2019-02-06T18:13:56.519Z,44.03
2019-02-06T18:16:29.219Z,47.50
2019-02-06T18:19:04.994Z,42.40
2019-02-06T18:21:32.231Z,48.33
2019-02-06T18:24:01.900Z,47.93
2019-02-06T18:26:35.940Z,39.93
2019-02-06T18:29:09.859Z,55.87
2019-02-06T18:31:40.006Z,47.83
2019-02-06T18:34:28.560Z,49.33
2019-02-06T18:36:58.650Z,54.07
2019-02-06T18:39:45.459Z,61.43
2019-02-06T18:42:36.943Z,71.77
2019-02-06T18:45:40.041Z,60.67
2019-02-06T18:48:14.608Z,64.07
2019-02-06T18:50:44.820Z,57.47
2019-02-06T18:53:17.703Z,62.33
2019-02-06T18:55:59.781Z,63.33
2019-02-06T18:58:45.817Z,63.70
2019-02-06T19:01:37.809Z,83.97
2019-02-06T19:11:17.026Z,69.67
2019-02-06T19:13:46.911Z,67.67
2019-02-06T19:16:31.928Z,66.83
2019-02-06T19:19:11.211Z,69.53
2019-02-06T19:21:41.167Z,69.23
2019-02-06T19:24:12.959Z,66.57
2019-02-06T19:27:02.304Z,69.57
2019-02-06T19:29:34.722Z,74.47
2019-02-06T19:32:05.262Z,67.80
2019-02-06T19:34:46.346Z,64.47
2019-02-06T19:37:23.109Z,64.07
2019-02-06T19:39:55.249Z,65.67
2019-02-06T19:43:38.515Z,70.67
2019-02-06T20:04:40.029Z,53.63
2019-02-06T20:07:14.163Z,57.47
2019-02-06T20:09:42.167Z,53.80
2019-02-06T20:12:11.873Z,53.20
2019-02-06T20:14:42.017Z,59.40
2019-02-06T20:17:13.782Z,61.17
2019-02-06T20:19:43.533Z,59.40
2019-02-06T20:22:14.984Z,56.67
2019-02-06T20:24:44.851Z,59.73
2019-02-06T20:27:14.778Z,69.43
2019-02-06T20:29:53.312Z,78.60
2019-02-06T20:32:24.610Z,71.10
2019-02-06T20:34:54.383Z,71.60
2019-02-06T20:37:24.189Z,72.40
2019-02-06T20:39:53.941Z,72.77
2019-02-06T20:49:22.664Z,74.57
2019-02-06T20:51:58.778Z,76.63
2019-02-06T20:55:12.574Z,82.40
2019-02-06T20:57:41.957Z,75.23
2019-02-06T21:00:16.469Z,75.73
2019-02-06T21:02:46.227Z,78.30
2019-02-06T21:05:16.639Z,93.63
2019-02-06T21:07:46.517Z,80.37
2019-02-06T21:10:18.278Z,69.07
2019-02-06T21:12:47.904Z,132.07
2019-02-06T21:15:18.041Z,176.87
2019-02-06T21:17:47.757Z,132.60
2019-02-06T21:20:18.994Z,79.10
2019-02-06T21:22:48.997Z,100.40
2019-02-06T21:25:19.856Z,143.33
2019-02-06T21:27:50.200Z,99.43
2019-02-06T21:30:28.449Z,118.20
2019-02-06T21:32:58.337Z,92.37
2019-02-06T21:35:28.302Z,94.53
2019-02-06T21:37:58.426Z,112.40
2019-02-06T21:40:29.857Z,131.10
2019-02-06T21:42:59.615Z,75.80
2019-02-06T21:45:29.338Z,85.83
2019-02-06T21:47:59.419Z,81.37
2019-02-06T21:50:28.979Z,67.67
2019-02-06T21:52:59.038Z,83.20
2019-02-06T21:55:28.775Z,70.53
2019-02-06T21:57:58.486Z,95.00
2019-02-06T22:00:30.283Z,82.53
2019-02-06T22:03:00.019Z,69.77
2019-02-06T22:05:53.956Z,58.53
2019-02-06T22:08:23.731Z,63.23
2019-02-06T22:10:53.452Z,62.87
2019-02-06T22:13:23.124Z,66.13
2019-02-06T22:15:53.230Z,66.33
2019-02-06T22:18:23.029Z,62.57
2019-02-06T22:20:52.806Z,64.50
2019-02-06T22:23:22.645Z,60.90
2019-02-06T22:25:52.221Z,58.17
2019-02-06T22:28:22.000Z,61.37
2019-02-06T22:30:51.836Z,61.50
2019-02-06T22:33:22.201Z,62.60
2019-02-06T22:35:51.978Z,60.27
2019-02-06T22:38:26.384Z,59.50
2019-02-06T22:40:56.213Z,61.00
2019-02-06T22:43:26.112Z,56.17
2019-02-06T22:45:55.815Z,57.03
2019-02-06T22:48:25.539Z,55.53
2019-02-06T22:50:57.493Z,59.93
2019-02-06T22:53:27.216Z,58.83
2019-02-06T22:55:56.849Z,59.97
2019-02-06T22:58:26.504Z,61.77
2019-02-06T23:01:26.315Z,65.13
2019-02-06T23:03:56.100Z,67.20
2019-02-06T23:06:25.961Z,63.13
2019-02-06T23:08:55.665Z,65.57
2019-02-06T23:11:25.398Z,63.63
2019-02-06T23:13:55.106Z,62.63
2019-02-06T23:16:24.754Z,68.63
2019-02-06T23:18:55.186Z,70.07
2019-02-06T23:21:24.879Z,69.50
2019-02-06T23:23:54.573Z,70.13
2019-02-06T23:26:24.235Z,67.03
2019-02-06T23:28:53.991Z,70.57
2019-02-06T23:31:23.710Z,99.00
2019-02-06T23:33:53.874Z,118.00
2019-02-06T23:36:23.526Z,114.63
2019-02-06T23:39:07.454Z,155.27
2019-02-06T23:41:37.211Z,151.83
2019-02-06T23:44:06.943Z,89.83
2019-02-06T23:46:36.811Z,102.00
2019-02-06T23:49:06.448Z,126.27
2019-02-06T23:51:36.122Z,130.57
2019-02-06T23:54:06.338Z,87.97
2019-02-06T23:56:36.077Z,79.60
2019-02-06T23:59:06.041Z,106.53
